Česky Dansk Deutsch English Español Suomi Français Magyar Italiano Nederlands norsk Polski Português svenska Türkçe

 

Het Weer

Lusaka City Airport (Zambia)

12:00, 12 November 2012 (GMT)

NWNNE
WE
SWSSE
Home            
Kabwe Lusaka City Airport Lusaka Internationalairport Ndola Serenje Kariba Karoi Kasempa Petauke Choma Lubumbashi-Luano Solwezi Binga Mansa Kaoma Mfuwe Gokwe Mpika Chipata Livingstone Kabompo Harare Kutsaga Hwange National Park

Om een weerknop op uw website of weblog te plaatsen, copieer onderstaande code en plak die in uw pagina. In het eerste vakje staat HTML-code, in het tweede vakje UBB-code.


Add to Google

Details

Wind speed:2 bf, 4 kn, 2.1 m/s, 4.6 miles/h, 7.4 km/h
Wind direction:SE, 130°
Visibility:Greater than 10000 m, 10 km, 32800 ft, 6.2 miles
Clouds:Durchbrochene Bewölkung at 5000 ft, 1524 m
Temperature:31°C, 88°F
Gefühlte Temperatur:31°C, 87°F
Dew-point:15°C, 59°F
Atmospheric pressure:1016 hPa, 762.1 mmHg, 30.00 inHg, 1.003 atm
Relative humidity:38.0 %
METAR:FLLC 121200Z 13004KT 9999 BKN050 31/15 Q1016

Snelkoppelingen

Actuele weersinformatie van de hele wereld. Voeg locaties toe met het plus (+) symbool. Deze snelkoppelingen kunnen worden toegevoegd aan Google.

Lid van de Technetium groep

website free tracking
StatCounter NetStat W3C Validator

28-11-2020 11:54:20
astro.technetium.be money.technetium.be phote.technetium.be tafeltennistafel.technetium.be www.ligfiets.net